Time;durP1;ratioP1;P1;durP2;ratioP2;P2;SDS_P1;SDS_P2;PMS_P1;PMS_P2;Temp;Humidity;BMP_temperature;BMP_pressure;BME280_temperature;BME280_humidity;BME280_pressure;Samples;Min_cycle;Max_cycle;Signal;HPM_P1;HPM_P2
2022/04/27 00:02:06;;;;;;;;;;;;;;;15.27;82.97;94803.13;4839648;29;19929;-82
2022/04/27 00:04:34;;;;;;;;;;;;;;;15.30;82.43;94800.16;4839480;29;19939;-82
2022/04/27 00:07:04;;;;;;;;;;;;;;;15.32;82.15;94800.81;4839477;29;19929;-82
2022/04/27 00:09:30;;;;;;;;;;;;;;;15.31;82.02;94801.81;4839468;29;20328;-80
2022/04/27 00:12:00;;;;;;;;;;;;;;;15.36;82.13;94801.34;4839475;29;19936;-82
2022/04/27 00:14:27;;;;;;;;;;;;;;;15.35;81.55;94797.88;4840194;29;19929;-82
2022/04/27 00:16:54;;;;;;;;;;;;;;;15.36;81.97;94798.69;4843269;29;19955;-82
2022/04/27 00:19:20;;;;;;;;;;;;;;;15.04;81.64;94802.91;4843023;29;19936;-81
2022/04/27 00:21:48;;;;;;;;;;;;;;;15.09;81.21;94802.41;4842795;29;19935;-82
2022/04/27 00:24:15;;;;;;;;;;;;;;;15.07;81.41;94804.38;4843030;29;19935;-82
2022/04/27 00:26:41;;;;;;;;;;;;;;;14.83;82.22;94802.47;4842726;29;19936;-82
2022/04/27 00:29:08;;;;;;;;;;;;;;;14.90;81.84;94797.38;4843097;29;19929;-82
2022/04/27 00:31:36;;;;;;;;;;;;;;;14.85;82.16;94797.84;4876214;29;19951;-82
2022/04/27 00:34:02;;;;;;;;;;;;;;;14.82;82.91;94795.53;4900909;29;20332;-82
2022/04/27 00:36:31;;;;;;;;;;;;;;;14.57;83.15;94791.94;4900911;29;19927;-82
2022/04/27 00:38:59;;;;;;;;;;;;;;;14.51;83.42;94792.56;4900745;29;19934;-82
2022/04/27 00:41:26;;;;;;;;;;;;;;;14.45;84.28;94804.53;4900967;29;20306;-82
2022/04/27 00:43:52;;;;;;;;;;;;;;;14.47;84.42;94801.78;4900733;29;19935;-82
2022/04/27 00:46:19;;;;;;;;;;;;;;;14.49;84.52;94794.53;4900725;29;19935;-82
2022/04/27 00:48:46;;;;;;;;;;;;;;;14.53;84.47;94796.69;4900418;29;19927;-82
2022/04/27 00:51:16;;;;;;;;;;;;;;;14.56;83.93;94796.38;4900841;29;19938;-82
2022/04/27 00:53:43;;;;;;;;;;;;;;;14.60;83.62;94801.34;4900615;29;19933;-82
2022/04/27 00:56:12;;;;;;;;;;;;;;;14.60;82.78;94801.34;4900595;29;20019;-83
2022/04/27 00:58:39;;;;;;;;;;;;;;;14.57;82.86;94798.03;4900769;29;19927;-82
2022/04/27 01:01:06;;;;;;;;;;;;;;;14.60;83.07;94799.53;4900719;29;19935;-82
2022/04/27 01:03:36;;;;;;;;;;;;;;;14.63;82.89;94799.22;4900264;29;19927;-82
2022/04/27 01:06:03;;;;;;;;;;;;;;;14.64;82.70;94798.22;4900342;29;19928;-81
2022/04/27 01:08:29;;;;;;;;;;;;;;;14.63;82.54;94796.56;4900594;29;20010;-82
2022/04/27 01:10:59;;;;;;;;;;;;;;;14.46;82.95;94794.84;4900249;29;19927;-82
2022/04/27 01:13:28;;;;;;;;;;;;;;;14.37;83.53;94801.00;4900325;29;20405;-82
2022/04/27 01:15:55;;;;;;;;;;;;;;;14.39;84.04;94804.31;4900185;29;19931;-82
2022/04/27 01:18:21;;;;;;;;;;;;;;;14.37;84.03;94793.91;4900507;29;19927;-82
2022/04/27 01:20:50;;;;;;;;;;;;;;;14.34;83.88;94793.41;4900161;29;19938;-82
2022/04/27 01:23:17;;;;;;;;;;;;;;;14.33;84.46;94792.56;4900155;29;20336;-82
2022/04/27 01:25:48;;;;;;;;;;;;;;;14.36;84.70;94799.34;4899645;29;19950;-82
2022/04/27 01:28:15;;;;;;;;;;;;;;;14.38;84.28;94784.19;4899843;29;19962;-82
2022/04/27 01:30:42;;;;;;;;;;;;;;;14.38;83.90;94787.66;4899856;29;20400;-82
2022/04/27 01:33:09;;;;;;;;;;;;;;;14.38;84.06;94792.94;4899817;29;20360;-82
2022/04/27 01:35:35;;;;;;;;;;;;;;;14.34;83.62;94788.13;4899571;29;19928;-82
2022/04/27 01:38:03;;;;;;;;;;;;;;;14.31;83.74;94789.25;4899701;29;19931;-82
2022/04/27 01:40:30;;;;;;;;;;;;;;;14.30;83.16;94794.69;4899442;29;19927;-82
2022/04/27 01:42:56;;;;;;;;;;;;;;;14.30;83.34;94789.41;4899564;29;19927;-82
2022/04/27 01:45:23;;;;;;;;;;;;;;;14.27;82.87;94793.19;4899738;29;20399;-83
2022/04/27 01:47:50;;;;;;;;;;;;;;;14.25;83.41;94782.78;4866511;29;19927;-82
2022/04/27 01:50:16;;;;;;;;;;;;;;;14.21;83.74;94785.91;4899815;29;19934;-82
2022/04/27 01:55:28;;;;;;;;;;;;;;;14.06;84.58;94788.25;4899502;29;19935;-82
2022/04/27 01:57:55;;;;;;;;;;;;;;;14.03;84.90;94791.22;4899357;29;19982;-83
2022/04/27 02:00:22;;;;;;;;;;;;;;;14.03;84.98;94778.00;4882008;29;19927;-82
2022/04/27 02:02:48;;;;;;;;;;;;;;;14.03;84.69;94778.00;4899797;29;19928;-82
2022/04/27 02:05:15;;;;;;;;;;;;;;;13.96;84.52;94790.16;4899508;29;19932;-82
2022/04/27 02:07:43;;;;;;;;;;;;;;;13.93;84.99;94777.28;4899191;29;19934;-82
2022/04/27 02:10:09;;;;;;;;;;;;;;;13.94;84.96;94782.41;4899718;29;20026;-82
2022/04/27 02:12:37;;;;;;;;;;;;;;;13.94;85.14;94782.41;4899106;29;19934;-82
2022/04/27 02:15:04;;;;;;;;;;;;;;;13.95;84.59;94781.44;4899584;29;19934;-82
2022/04/27 02:17:31;;;;;;;;;;;;;;;13.84;85.07;94781.66;4899369;29;19939;-81
2022/04/27 02:19:57;;;;;;;;;;;;;;;13.84;85.40;94783.47;4899137;29;19928;-82
2022/04/27 02:22:24;;;;;;;;;;;;;;;13.78;85.18;94779.63;4898901;29;19939;-82
2022/04/27 02:24:51;;;;;;;;;;;;;;;13.76;84.89;94786.03;4899013;29;20407;-82
2022/04/27 02:27:19;;;;;;;;;;;;;;;13.70;83.78;94786.66;4898950;29;20018;-82
2022/04/27 02:29:47;;;;;;;;;;;;;;;13.61;83.76;94783.94;4899124;29;20417;-81
2022/04/27 02:32:15;;;;;;;;;;;;;;;13.58;84.10;94786.03;4898719;29;19928;-82
2022/04/27 02:34:42;;;;;;;;;;;;;;;13.60;84.30;94787.56;4898867;29;19927;-81
2022/04/27 02:37:08;;;;;;;;;;;;;;;13.60;84.13;94781.47;4898700;29;19931;-82
2022/04/27 02:39:35;;;;;;;;;;;;;;;13.55;84.43;94784.53;4898476;29;19942;-82
2022/04/27 02:42:01;;;;;;;;;;;;;;;13.52;84.13;94784.84;4881066;29;20414;-82
2022/04/27 02:44:28;;;;;;;;;;;;;;;13.53;83.79;94783.03;4898707;29;19928;-82
2022/04/27 02:46:56;;;;;;;;;;;;;;;13.53;84.20;94790.94;4881134;29;19931;-82
2022/04/27 02:52:07;;;;;;;;;;;;;;;13.44;84.47;94782.13;4898641;29;20040;-82
2022/04/27 02:54:34;;;;;;;;;;;;;;;13.43;84.45;94777.84;4898331;29;19927;-82
2022/04/27 02:57:01;;;;;;;;;;;;;;;13.37;84.71;94780.25;4898287;29;19928;-82
2022/04/27 02:59:27;;;;;;;;;;;;;;;13.37;84.95;94781.06;4898480;29;20386;-82
2022/04/27 03:01:54;;;;;;;;;;;;;;;13.40;84.68;94777.31;4898363;29;19934;-82
2022/04/27 03:04:22;;;;;;;;;;;;;;;13.40;85.17;94782.59;4898414;29;19928;-82
2022/04/27 03:06:48;;;;;;;;;;;;;;;13.36;85.30;94784.69;4897939;29;19927;-82
2022/04/27 03:09:15;;;;;;;;;;;;;;;13.33;85.12;94790.25;4898278;29;20136;-82
2022/04/27 03:11:42;;;;;;;;;;;;;;;13.30;85.59;94787.94;4864904;29;19927;-82
2022/04/27 03:14:08;;;;;;;;;;;;;;;13.31;85.30;94790.41;4898100;29;20383;-82
2022/04/27 03:16:35;;;;;;;;;;;;;;;13.31;85.40;94789.59;4898309;29;19927;-82
2022/04/27 03:19:01;;;;;;;;;;;;;;;13.32;85.58;94794.72;4898003;29;19934;-82
2022/04/27 03:21:32;;;;;;;;;;;;;;;13.29;85.34;94797.63;4898222;29;19979;-82
2022/04/27 03:23:59;;;;;;;;;;;;;;;13.32;85.28;94801.78;4899409;29;19928;-82
2022/04/27 03:26:25;;;;;;;;;;;;;;;13.34;84.50;94802.47;4899365;29;20289;-82
2022/04/27 03:28:52;;;;;;;;;;;;;;;13.36;84.71;94803.13;4898884;29;20019;-83
2022/04/27 03:31:18;;;;;;;;;;;;;;;13.39;84.29;94808.09;4898954;29;19927;-82
2022/04/27 03:33:45;;;;;;;;;;;;;;;13.41;84.42;94808.78;4899142;29;20383;-83
2022/04/27 03:36:12;;;;;;;;;;;;;;;13.44;84.25;94813.75;4881829;29;19928;-84
2022/04/27 03:38:40;;;;;;;;;;;;;;;13.41;83.46;94814.06;4899279;29;19927;-84
2022/04/27 03:41:07;;;;;;;;;;;;;;;13.41;83.89;94819.34;4899256;29;19934;-83
2022/04/27 03:43:34;;;;;;;;;;;;;;;13.41;83.42;94819.34;4899101;29;20375;-83
2022/04/27 03:46:00;;;;;;;;;;;;;;;13.42;82.75;94814.88;4899318;29;19935;-83
2022/04/27 03:48:27;;;;;;;;;;;;;;;13.45;82.91;94825.97;4898474;29;19934;-83
2022/04/27 03:50:54;;;;;;;;;;;;;;;13.52;83.67;94826.19;4899146;29;20376;-85
2022/04/27 03:53:21;;;;;;;;;;;;;;;13.67;83.80;94823.88;4899904;29;19934;-88
2022/04/27 03:55:49;;;;;;;;;;;;;;;13.83;82.82;94829.28;4899410;29;19927;-82
2022/04/27 03:58:15;;;;;;;;;;;;;;;13.99;81.35;94829.44;4898550;29;19931;-85
2022/04/27 04:00:42;;;;;;;;;;;;;;;14.13;80.68;94836.78;4898737;29;19928;-85
2022/04/27 04:03:11;;;;;;;;;;;;;;;14.47;79.45;94836.94;4898857;29;19928;-84
2022/04/27 04:05:38;;;;;;;;;;;;;;;14.91;77.75;94836.00;4865830;29;19927;-83
2022/04/27 04:08:05;;;;;;;;;;;;;;;15.35;75.41;94842.00;4899463;29;19927;-84
2022/04/27 04:10:31;;;;;;;;;;;;;;;15.78;73.56;94847.09;4898612;29;19927;-84
2022/04/27 04:12:59;;;;;;;;;;;;;;;16.31;70.83;94842.31;4898093;29;19927;-84
2022/04/27 04:15:26;;;;;;;;;;;;;;;16.88;69.34;94851.06;4897283;29;19937;-83
2022/04/27 04:17:53;;;;;;;;;;;;;;;17.48;66.77;94855.81;4897522;29;19934;-84
2022/04/27 04:20:20;;;;;;;;;;;;;;;18.01;64.85;94856.88;4897650;29;19966;-83
2022/04/27 04:22:47;;;;;;;;;;;;;;;18.52;62.94;94863.31;4899234;29;20026;-83
2022/04/27 04:30:58;;;;;;;;;;;;;;;19.80;57.89;94865.78;4858110;29;19981;-84
2022/04/27 04:33:24;;;;;;;;;;;;;;;20.10;57.11;94858.53;4859031;29;19932;-84
2022/04/27 04:35:52;;;;;;;;;;;;;;;20.42;56.33;94858.03;4874409;29;19928;-84
2022/04/27 04:38:18;;;;;;;;;;;;;;;20.66;55.52;94864.00;4859811;29;19934;-84
2022/04/27 04:40:45;;;;;;;;;;;;;;;20.85;55.41;94862.53;4859308;29;19935;-84
2022/04/27 04:43:13;;;;;;;;;;;;;;;20.96;54.92;94864.63;4859358;29;19944;-85
2022/04/27 04:45:39;;;;;;;;;;;;;;;21.07;54.62;94868.59;4859213;29;19932;-82
2022/04/27 04:48:08;;;;;;;;;;;;;;;21.08;54.63;94865.75;4860368;29;19928;-82
2022/04/27 04:50:34;;;;;;;;;;;;;;;21.11;55.37;94873.38;4892865;29;19976;-86
2022/04/27 04:53:01;;;;;;;;;;;;;;;21.16;57.80;94876.28;4877787;29;19928;-85
2022/04/27 04:55:28;;;;;;;;;;;;;;;21.23;56.88;94876.31;4878088;29;19928;-82
2022/04/27 04:57:55;;;;;;;;;;;;;;;21.31;54.99;94884.19;4877261;29;19935;-86
2022/04/27 05:00:23;;;;;;;;;;;;;;;21.47;57.13;94878.56;4878083;29;20374;-85
2022/04/27 05:02:49;;;;;;;;;;;;;;;21.47;56.60;94878.56;4899183;29;19927;-86
2022/04/27 05:05:16;;;;;;;;;;;;;;;21.52;55.65;94883.28;4902070;29;20320;-90
2022/04/27 05:07:43;;;;;;;;;;;;;;;21.66;55.42;94882.31;4901559;29;19927;-87
2022/04/27 05:10:10;;;;;;;;;;;;;;;21.92;53.28;94881.63;4916098;29;19927;-88
2022/04/27 05:12:37;;;;;;;;;;;;;;;22.17;52.74;94885.44;4901779;29;19932;-87
2022/04/27 05:15:04;;;;;;;;;;;;;;;22.45;52.33;94887.16;4901680;29;19927;-89
2022/04/27 05:46:06;;;;;;;;;;;;;;;23.88;48.28;94883.78;4879420;29;19997;-84
2022/04/27 05:48:33;;;;;;;;;;;;;;;23.94;47.18;94877.56;4885889;29;19979;-84
2022/04/27 05:51:01;;;;;;;;;;;;;;;23.99;47.59;94883.09;4900706;29;19927;-84
2022/04/27 05:53:28;;;;;;;;;;;;;;;24.20;47.16;94878.47;4900911;29;19983;-83
2022/04/27 05:55:54;;;;;;;;;;;;;;;24.01;47.64;94883.72;4901341;29;19934;-83
2022/04/27 05:58:21;;;;;;;;;;;;;;;23.73;47.61;94885.91;4900568;29;20376;-84
2022/04/27 06:00:49;;;;;;;;;;;;;;;23.67;48.55;94876.00;4900808;29;19934;-83
2022/04/27 06:03:17;;;;;;;;;;;;;;;23.77;48.27;94882.59;4900839;29;19933;-83
2022/04/27 06:05:44;;;;;;;;;;;;;;;24.01;48.38;94878.38;4899140;29;19934;-83
2022/04/27 06:08:10;;;;;;;;;;;;;;;24.30;47.78;94881.56;4899226;29;20327;-83
2022/04/27 06:10:37;;;;;;;;;;;;;;;24.70;46.71;94877.56;4897399;29;19983;-83
2022/04/27 06:13:03;;;;;;;;;;;;;;;25.06;45.44;94886.00;4897960;29;19927;-83
2022/04/27 06:15:30;;;;;;;;;;;;;;;25.10;45.57;94881.81;4899369;29;19927;-84
2022/04/27 06:17:57;;;;;;;;;;;;;;;25.03;45.45;94884.56;4898749;29;19932;-83
2022/04/27 06:20:25;;;;;;;;;;;;;;;24.97;45.29;94885.44;4899957;29;19934;-83
2022/04/27 06:22:51;;;;;;;;;;;;;;;24.66;46.49;94880.91;4900398;29;19960;-83
2022/04/27 06:25:19;;;;;;;;;;;;;;;24.29;47.47;94886.09;4900024;29;19927;-83
2022/04/27 06:27:45;;;;;;;;;;;;;;;23.92;49.65;94884.97;4899990;29;20368;-84
2022/04/27 06:30:12;;;;;;;;;;;;;;;23.63;51.40;94880.97;4899918;29;19927;-83
2022/04/27 06:32:39;;;;;;;;;;;;;;;22.28;52.93;94888.56;4899969;29;19928;-84
2022/04/27 06:35:06;;;;;;;;;;;;;;;22.31;53.82;94880.13;4900489;29;19934;-84
2022/04/27 06:37:34;;;;;;;;;;;;;;;22.54;53.07;94886.75;4899318;29;19935;-82
2022/04/27 06:40:01;;;;;;;;;;;;;;;22.56;53.40;94883.91;4899761;29;19935;-83
2022/04/27 06:42:27;;;;;;;;;;;;;;;22.80;53.00;94883.28;4900351;29;19928;-82
2022/04/27 06:44:54;;;;;;;;;;;;;;;22.61;53.31;94884.09;4899007;29;19927;-82
2022/04/27 06:47:20;;;;;;;;;;;;;;;22.07;55.12;94886.84;4899221;29;19927;-83
2022/04/27 06:49:47;;;;;;;;;;;;;;;22.02;55.28;94881.25;4899204;29;19931;-83
2022/04/27 06:52:14;;;;;;;;;;;;;;;21.81;55.40;94879.53;4897464;29;19939;-83
2022/04/27 06:54:42;;;;;;;;;;;;;;;21.94;55.81;94879.56;4898302;29;19950;-84
2022/04/27 06:57:08;;;;;;;;;;;;;;;22.35;55.75;94882.19;4898192;29;19928;-83
2022/04/27 06:59:35;;;;;;;;;;;;;;;22.68;53.51;94882.25;4898510;29;19927;-83
2022/04/27 07:02:02;;;;;;;;;;;;;;;23.10;53.29;94882.88;4897904;29;20395;-83
2022/04/27 07:04:29;;;;;;;;;;;;;;;23.04;52.43;94894.41;4898924;29;19935;-83
2022/04/27 07:06:56;;;;;;;;;;;;;;;22.78;54.04;94888.00;4898826;29;19928;-83
2022/04/27 07:09:23;;;;;;;;;;;;;;;22.65;54.15;94895.22;4899372;29;19927;-83
2022/04/27 07:11:52;;;;;;;;;;;;;;;22.96;53.48;94883.94;4899008;29;19934;-83
2022/04/27 07:14:19;;;;;;;;;;;;;;;23.15;51.93;94888.47;4898283;29;19934;-83
2022/04/27 07:16:46;;;;;;;;;;;;;;;23.44;51.16;94896.03;4898339;29;19928;-83
2022/04/27 07:19:13;;;;;;;;;;;;;;;23.36;53.76;94884.69;4897325;29;19927;-83
2022/04/27 07:21:39;;;;;;;;;;;;;;;22.99;51.73;94883.50;4897400;29;19927;-83
2022/04/27 07:24:06;;;;;;;;;;;;;;;23.14;53.16;94886.81;4896822;29;19931;-83
2022/04/27 07:26:34;;;;;;;;;;;;;;;23.29;54.28;94883.91;4897064;29;19927;-83
2022/04/27 07:29:02;;;;;;;;;;;;;;;22.97;54.10;94882.91;4897225;29;19928;-84
2022/04/27 07:31:28;;;;;;;;;;;;;;;23.17;54.73;94886.41;4897331;29;19932;-84
2022/04/27 07:33:55;;;;;;;;;;;;;;;22.50;55.39;94880.16;4896963;29;20298;-84
2022/04/27 07:36:21;;;;;;;;;;;;;;;22.36;57.46;94877.69;4897135;29;20010;-84
2022/04/27 07:38:48;;;;;;;;;;;;;;;22.35;57.10;94878.72;4894635;29;20395;-83
2022/04/27 07:41:14;;;;;;;;;;;;;;;22.45;57.60;94881.81;4897186;29;19935;-83
2022/04/27 07:43:42;;;;;;;;;;;;;;;22.38;56.54;94887.16;4897225;29;20383;-83
2022/04/27 07:46:11;;;;;;;;;;;;;;;21.81;58.49;94887.53;4850846;29;883681;-83
2022/04/27 07:48:38;;;;;;;;;;;;;;;21.99;58.16;94879.00;4897935;29;19931;-83
2022/04/27 07:51:05;;;;;;;;;;;;;;;22.40;57.73;94873.56;4897520;29;20392;-83
2022/04/27 07:53:32;;;;;;;;;;;;;;;22.41;57.77;94869.88;4897463;29;19934;-83
2022/04/27 07:55:58;;;;;;;;;;;;;;;22.54;55.25;94876.03;4897329;29;19932;-83
2022/04/27 07:58:25;;;;;;;;;;;;;;;22.65;54.76;94877.31;4897358;29;19932;-83
2022/04/27 08:00:51;;;;;;;;;;;;;;;22.61;56.30;94870.72;4898487;29;20376;-83
2022/04/27 08:03:19;;;;;;;;;;;;;;;22.56;54.55;94875.88;4899202;29;19931;-83
2022/04/27 08:14:54;;;;;;;;;;;;;;;23.46;55.04;94861.00;4897941;29;19930;-83
2022/04/27 08:17:21;;;;;;;;;;;;;;;23.78;54.04;94868.16;4899024;29;19927;-82
2022/04/27 08:21:13;;;;;;;;;;;;;;;23.71;54.53;94861.19;4898848;29;19927;-83
2022/04/27 08:22:35;;;;;;;;;;;;;;;23.53;55.91;94861.81;4898447;29;19935;-82
2022/04/27 08:25:02;;;;;;;;;;;;;;;23.53;53.34;94855.63;4881617;29;19934;-79
2022/04/27 08:27:28;;;;;;;;;;;;;;;23.71;53.62;94861.19;4898645;29;19933;-83
2022/04/27 08:29:55;;;;;;;;;;;;;;;23.83;53.97;94858.66;4898500;29;19997;-83
2022/04/27 08:32:22;;;;;;;;;;;;;;;23.95;52.97;94851.56;4897152;29;19950;-83
2022/04/27 08:34:51;;;;;;;;;;;;;;;24.15;53.37;94856.84;4898722;29;19935;-83
2022/04/27 08:37:17;;;;;;;;;;;;;;;23.87;50.55;94860.69;4902051;29;20018;-84
2022/04/27 08:39:44;;;;;;;;;;;;;;;23.94;51.02;94855.28;4901788;29;19956;-83
2022/04/27 08:42:11;;;;;;;;;;;;;;;23.99;52.31;94858.16;4900815;29;19934;-83
2022/04/27 08:44:38;;;;;;;;;;;;;;;24.02;50.72;94857.75;4902475;29;19934;-83
2022/04/27 08:47:05;;;;;;;;;;;;;;;23.48;51.44;94843.69;4902829;29;19933;-83
2022/04/27 08:49:33;;;;;;;;;;;;;;;23.53;52.71;94844.91;4884763;29;20307;-83
2022/04/27 08:52:02;;;;;;;;;;;;;;;23.70;52.53;94844.25;4900156;29;19934;-83
2022/04/27 08:54:29;;;;;;;;;;;;;;;23.97;51.58;94849.50;4902009;29;19939;-83
2022/04/27 08:56:56;;;;;;;;;;;;;;;24.18;51.70;94841.16;4901513;29;19983;-83
2022/04/27 08:59:22;;;;;;;;;;;;;;;24.37;52.15;94837.56;4902071;29;19935;-83
2022/04/27 09:01:49;;;;;;;;;;;;;;;24.52;49.88;94836.41;4901490;29;20438;-82
2022/04/27 09:04:16;;;;;;;;;;;;;;;24.66;49.78;94836.13;4902128;29;19950;-82
2022/04/27 09:06:45;;;;;;;;;;;;;;;24.53;47.76;94825.47;4899981;29;19934;-82
2022/04/27 09:09:31;;;;;;;;;;;;;;;24.27;47.98;94836.34;4901499;29;19927;-83
2022/04/27 09:11:58;;;;;;;;;;;;;;;24.36;47.39;94827.03;4901658;29;19931;-83
2022/04/27 09:14:36;;;;;;;;;;;;;;;24.10;49.51;94823.47;4901595;29;19932;-83
2022/04/27 09:22:44;;;;;;;;;;;;;;;24.27;50.16;94817.56;4901624;29;19934;-83
2022/04/27 09:25:12;;;;;;;;;;;;;;;24.40;49.78;94817.53;4901182;29;20410;-83
2022/04/27 09:27:39;;;;;;;;;;;;;;;24.24;50.41;94813.47;4901070;29;19934;-82
2022/04/27 09:30:07;;;;;;;;;;;;;;;24.19;49.47;94807.09;4898975;29;19931;-83
2022/04/27 09:32:34;;;;;;;;;;;;;;;24.06;49.49;94810.69;4881761;29;19960;-83
2022/04/27 09:35:02;;;;;;;;;;;;;;;24.16;48.82;94816.41;4899743;29;19927;-83
2022/04/27 09:37:30;;;;;;;;;;;;;;;24.05;47.67;94809.88;4881312;29;20911;-83
2022/04/27 09:40:01;;;;;;;;;;;;;;;23.95;47.20;94808.69;4898247;29;19927;-82
2022/04/27 09:42:32;;;;;;;;;;;;;;;23.98;47.56;94798.34;4899708;29;20307;-82
2022/04/27 09:45:13;;;;;;;;;;;;;;;24.02;49.72;94804.94;4900402;29;19931;-82
2022/04/27 09:47:44;;;;;;;;;;;;;;;23.75;48.15;94800.75;4900874;29;19943;-82
2022/04/27 09:50:11;;;;;;;;;;;;;;;23.31;50.90;94794.28;4901272;29;19927;-83
2022/04/27 09:52:38;;;;;;;;;;;;;;;23.58;50.99;94783.50;4900746;29;19980;-83
2022/04/27 09:55:07;;;;;;;;;;;;;;;23.79;54.25;94788.56;4899238;29;19934;-83
2022/04/27 10:06:47;;;;;;;;;;;;;;;23.22;50.65;94787.53;4900897;29;20319;-83
2022/04/27 10:09:14;;;;;;;;;;;;;;;22.57;51.80;94789.25;4901374;29;20113;-83
2022/04/27 10:11:41;;;;;;;;;;;;;;;22.80;52.14;94792.28;4900929;29;19934;-81
2022/04/27 10:14:08;;;;;;;;;;;;;;;22.91;50.94;94784.72;4900942;29;20298;-82
2022/04/27 10:16:35;;;;;;;;;;;;;;;22.84;50.13;94788.22;4900373;29;20296;-82
2022/04/27 10:19:02;;;;;;;;;;;;;;;23.15;50.21;94781.38;4900496;29;19927;-82
2022/04/27 10:21:43;;;;;;;;;;;;;;;23.04;49.44;94776.66;4900955;29;20298;-83
2022/04/27 10:24:12;;;;;;;;;;;;;;;23.42;50.71;94777.59;4900667;29;19928;-83
2022/04/27 10:26:39;;;;;;;;;;;;;;;23.59;49.14;94769.09;4900523;29;19939;-81
2022/04/27 10:29:06;;;;;;;;;;;;;;;23.61;50.48;94770.50;4900505;29;19927;-84
2022/04/27 10:31:51;;;;;;;;;;;;;;;23.50;48.51;94763.13;4900049;29;19928;-85
2022/04/27 10:34:21;;;;;;;;;;;;;;;23.37;47.47;94769.34;4900563;29;19934;-85
2022/04/27 10:36:49;;;;;;;;;;;;;;;23.46;46.30;94761.91;4900265;29;19939;-84
2022/04/27 10:39:21;;;;;;;;;;;;;;;23.42;45.81;94760.69;4900205;29;19928;-84
2022/04/27 10:42:05;;;;;;;;;;;;;;;23.55;46.61;94763.31;4900566;29;19950;-84
2022/04/27 10:44:46;;;;;;;;;;;;;;;23.51;44.49;94758.59;4879222;29;19928;-83
2022/04/27 10:47:18;;;;;;;;;;;;;;;23.51;43.63;94754.06;4878519;29;19935;-84
2022/04/27 10:49:46;;;;;;;;;;;;;;;23.51;42.78;94753.22;4848688;29;19928;-84
2022/04/27 10:52:13;;;;;;;;;;;;;;;23.48;42.01;94752.63;4879273;29;19928;-84
2022/04/27 10:54:42;;;;;;;;;;;;;;;23.70;43.24;94742.44;4878980;29;19928;-84
2022/04/27 10:57:27;;;;;;;;;;;;;;;23.80;43.00;94736.63;4878866;29;19932;-84
2022/04/27 10:59:59;;;;;;;;;;;;;;;23.69;44.45;94739.97;4878423;29;19928;-84
2022/04/27 11:02:32;;;;;;;;;;;;;;;23.71;44.70;94732.56;4878898;29;19935;-84
2022/04/27 11:04:58;;;;;;;;;;;;;;;23.91;45.42;94727.88;4878753;29;19928;-84
2022/04/27 11:07:30;;;;;;;;;;;;;;;23.97;44.81;94726.19;4879171;29;20023;-84
2022/04/27 11:10:12;;;;;;;;;;;;;;;23.99;45.61;94726.78;4878758;29;19928;-84
2022/04/27 11:12:42;;;;;;;;;;;;;;;23.86;46.09;94725.03;4878659;29;19932;-84
2022/04/27 11:15:10;;;;;;;;;;;;;;;24.02;45.00;94723.69;4878762;29;19932;-84
2022/04/27 11:17:37;;;;;;;;;;;;;;;24.13;46.30;94716.81;4848313;29;19928;-84
2022/04/27 11:20:04;;;;;;;;;;;;;;;24.29;45.74;94708.28;4878692;29;19932;-83
2022/04/27 11:22:37;;;;;;;;;;;;;;;24.36;46.20;94714.41;4863437;29;19934;-82
2022/04/27 11:25:05;;;;;;;;;;;;;;;24.15;42.67;94712.03;4899136;29;19928;-84
2022/04/27 11:27:33;;;;;;;;;;;;;;;24.13;42.44;94706.91;4899539;29;19931;-83
2022/04/27 11:30:02;;;;;;;;;;;;;;;24.28;43.32;94702.06;4899243;29;19927;-84
2022/04/27 11:32:29;;;;;;;;;;;;;;;24.27;44.22;94692.34;4899024;29;19928;-83
2022/04/27 11:34:56;;;;;;;;;;;;;;;24.38;43.67;94706.94;4899277;29;19935;-84
2022/04/27 11:37:22;;;;;;;;;;;;;;;24.36;42.92;94691.06;4899406;29;19928;-83
2022/04/27 11:39:50;;;;;;;;;;;;;;;24.37;43.38;94698.06;4898933;29;19931;-84
2022/04/27 11:42:17;;;;;;;;;;;;;;;24.29;43.69;94682.28;4898807;29;20335;-84
2022/04/27 11:44:50;;;;;;;;;;;;;;;24.17;42.71;94689.34;4881579;29;20372;-84
2022/04/27 11:47:31;;;;;;;;;;;;;;;24.25;44.50;94685.56;4898963;29;19934;-85
2022/04/27 11:49:58;;;;;;;;;;;;;;;23.38;46.39;94682.59;4898649;29;19928;-84
2022/04/27 11:52:25;;;;;;;;;;;;;;;23.34;46.05;94680.56;4898821;29;19931;-82
2022/04/27 11:54:52;;;;;;;;;;;;;;;23.43;45.37;94669.41;4898888;29;19928;-85
2022/04/27 11:57:22;;;;;;;;;;;;;;;23.55;45.01;94664.19;4899280;29;19935;-84
2022/04/27 11:59:51;;;;;;;;;;;;;;;23.83;45.13;94660.31;4898589;29;19928;-84
2022/04/27 12:02:22;;;;;;;;;;;;;;;23.66;42.85;94670.72;4898858;29;19927;-83
2022/04/27 12:04:51;;;;;;;;;;;;;;;23.61;43.14;94666.03;4898506;29;19939;-86
2022/04/27 12:07:17;;;;;;;;;;;;;;;23.42;42.86;94662.41;4898606;29;19962;-85
2022/04/27 12:09:56;;;;;;;;;;;;;;;23.48;43.77;94653.53;4899991;29;19927;-84
2022/04/27 12:12:23;;;;;;;;;;;;;;;23.61;44.99;94658.00;4902846;29;19927;-84
2022/04/27 12:14:51;;;;;;;;;;;;;;;23.78;44.76;94647.59;4902551;29;20294;-84
2022/04/27 12:17:36;;;;;;;;;;;;;;;23.95;44.12;94646.00;4902515;29;20375;-83
2022/04/27 12:26:11;;;;;;;;;;;;;;;24.16;42.06;94628.72;4902243;29;19930;-85
2022/04/27 12:28:44;;;;;;;;;;;;;;;24.23;41.16;94631.31;4902583;29;19935;-83
2022/04/27 12:31:10;;;;;;;;;;;;;;;24.24;42.00;94619.56;4902284;29;20257;-85
2022/04/27 12:33:38;;;;;;;;;;;;;;;24.03;40.07;94626.97;4902279;29;19975;-84
2022/04/27 12:38:59;;;;;;;;;;;;;;;24.05;41.22;94616.84;4898503;29;19934;-86
2022/04/27 12:41:31;;;;;;;;;;;;;;;24.10;41.99;94625.06;4900896;29;19931;-86
2022/04/27 12:44:02;;;;;;;;;;;;;;;24.18;40.47;94631.16;4900747;29;19932;-86
2022/04/27 12:46:29;;;;;;;;;;;;;;;23.85;41.53;94616.19;4900430;29;19934;-86
2022/04/27 12:49:00;;;;;;;;;;;;;;;23.69;41.41;94609.50;4901004;29;20036;-85
2022/04/27 12:51:29;;;;;;;;;;;;;;;23.72;42.79;94605.59;4900775;29;19928;-86
2022/04/27 12:53:57;;;;;;;;;;;;;;;23.53;42.81;94601.16;4900673;29;19928;-86
2022/04/27 12:56:31;;;;;;;;;;;;;;;23.58;43.37;94598.66;4883194;29;20014;-86
2022/04/27 12:59:06;;;;;;;;;;;;;;;23.33;44.38;94602.09;4899680;29;19927;-85
2022/04/27 13:01:33;;;;;;;;;;;;;;;23.38;44.51;94599.59;4899837;29;19951;-85
2022/04/27 13:04:00;;;;;;;;;;;;;;;23.40;45.84;94596.69;4914522;29;20026;-85
2022/04/27 13:06:29;;;;;;;;;;;;;;;23.39;44.50;94605.75;4900172;29;20333;-86
2022/04/27 13:08:56;;;;;;;;;;;;;;;23.42;45.04;94611.53;4900662;29;20018;-86
2022/04/27 13:14:08;;;;;;;;;;;;;;;23.45;45.25;94600.38;4900562;29;19934;-86
2022/04/27 13:16:35;;;;;;;;;;;;;;;23.54;46.24;94602.78;4900096;29;20315;-86
2022/04/27 13:19:01;;;;;;;;;;;;;;;23.72;44.00;94594.88;4900745;29;19927;-85
2022/04/27 13:21:29;;;;;;;;;;;;;;;23.72;43.74;94590.34;4899577;29;19928;-85
2022/04/27 13:23:55;;;;;;;;;;;;;;;23.88;43.11;94591.63;4900467;29;19934;-85
2022/04/27 13:26:22;;;;;;;;;;;;;;;23.68;44.09;94605.19;4900218;29;19931;-86
2022/04/27 13:28:48;;;;;;;;;;;;;;;23.66;44.23;94585.81;4900350;29;19943;-84
2022/04/27 13:31:17;;;;;;;;;;;;;;;23.67;44.66;94586.63;4900257;29;19951;-85
2022/04/27 13:33:43;;;;;;;;;;;;;;;23.62;45.25;94589.16;4900490;29;19971;-85
2022/04/27 13:36:10;;;;;;;;;;;;;;;23.54;45.17;94600.94;4882055;29;20376;-87
2022/04/27 13:38:36;;;;;;;;;;;;;;;23.56;46.41;94600.75;4900117;29;19927;-85
2022/04/27 13:41:03;;;;;;;;;;;;;;;23.60;46.39;94593.91;4900369;29;19934;-86
2022/04/27 13:43:30;;;;;;;;;;;;;;;23.52;45.96;94600.34;4899833;29;19933;-84
2022/04/27 13:45:57;;;;;;;;;;;;;;;23.47;46.62;94592.94;4900098;29;19927;-85
2022/04/27 13:48:25;;;;;;;;;;;;;;;23.29;47.08;94603.56;4899481;29;19927;-85
2022/04/27 13:50:52;;;;;;;;;;;;;;;23.21;47.67;94598.47;4899808;29;19935;-85
2022/04/27 13:53:19;;;;;;;;;;;;;;;23.04;47.87;94600.81;4899530;29;20030;-86
2022/04/27 13:55:46;;;;;;;;;;;;;;;23.08;48.79;94588.66;4899805;29;19928;-85
2022/04/27 13:58:12;;;;;;;;;;;;;;;22.94;47.64;94589.75;4899556;29;19931;-85
2022/04/27 14:00:39;;;;;;;;;;;;;;;23.01;48.27;94598.56;4899974;29;19928;-85
2022/04/27 14:03:06;;;;;;;;;;;;;;;22.82;48.20;94599.47;4900867;29;20394;-87
2022/04/27 14:05:34;;;;;;;;;;;;;;;22.90;48.97;94590.41;4900573;29;19928;-84
2022/04/27 14:08:02;;;;;;;;;;;;;;;22.86;47.79;94596.19;4900232;29;19938;-80